sensor_id;sensor_type;location;lat;lon;timestamp;P1;durP1;ratioP1;P2;durP2;ratioP2
1446;SDS011;717;51.522;7.266;2023-10-31T00:01:12;1.60;;;1.50;;
1446;SDS011;717;51.522;7.266;2023-10-31T00:03:42;1.80;;;1.70;;
1446;SDS011;717;51.522;7.266;2023-10-31T00:06:12;1.95;;;1.75;;
1446;SDS011;717;51.522;7.266;2023-10-31T00:08:44;2.17;;;1.98;;
1446;SDS011;717;51.522;7.266;2023-10-31T00:11:14;2.20;;;2.10;;
1446;SDS011;717;51.522;7.266;2023-10-31T00:13:44;2.03;;;1.92;;
1446;SDS011;717;51.522;7.266;2023-10-31T00:16:14;3.03;;;2.72;;
1446;SDS011;717;51.522;7.266;2023-10-31T00:18:44;3.28;;;3.08;;
1446;SDS011;717;51.522;7.266;2023-10-31T00:21:14;3.22;;;3.03;;
1446;SDS011;717;51.522;7.266;2023-10-31T00:23:48;3.97;;;3.67;;
1446;SDS011;717;51.522;7.266;2023-10-31T00:26:18;4.10;;;3.80;;
1446;SDS011;717;51.522;7.266;2023-10-31T00:28:52;3.75;;;3.45;;
1446;SDS011;717;51.522;7.266;2023-10-31T00:31:22;3.70;;;3.40;;
1446;SDS011;717;51.522;7.266;2023-10-31T00:33:52;3.03;;;2.83;;
1446;SDS011;717;51.522;7.266;2023-10-31T00:36:22;2.63;;;2.42;;
1446;SDS011;717;51.522;7.266;2023-10-31T00:38:54;1.98;;;1.88;;
1446;SDS011;717;51.522;7.266;2023-10-31T00:41:24;1.70;;;1.60;;
1446;SDS011;717;51.522;7.266;2023-10-31T00:43:54;1.85;;;1.75;;
1446;SDS011;717;51.522;7.266;2023-10-31T00:46:24;2.80;;;2.03;;
1446;SDS011;717;51.522;7.266;2023-10-31T00:48:54;1.60;;;1.50;;
1446;SDS011;717;51.522;7.266;2023-10-31T00:51:24;1.67;;;1.58;;
1446;SDS011;717;51.522;7.266;2023-10-31T00:53:57;1.30;;;1.20;;
1446;SDS011;717;51.522;7.266;2023-10-31T00:56:27;1.27;;;1.17;;
1446;SDS011;717;51.522;7.266;2023-10-31T00:58:57;1.23;;;1.20;;
1446;SDS011;717;51.522;7.266;2023-10-31T01:01:27;1.10;;;1.00;;
1446;SDS011;717;51.522;7.266;2023-10-31T01:03:57;1.85;;;1.50;;
1446;SDS011;717;51.522;7.266;2023-10-31T01:06:27;1.40;;;1.35;;
1446;SDS011;717;51.522;7.266;2023-10-31T01:08:59;1.60;;;1.50;;
1446;SDS011;717;51.522;7.266;2023-10-31T01:11:29;1.48;;;1.38;;
1446;SDS011;717;51.522;7.266;2023-10-31T01:13:59;1.20;;;1.20;;
1446;SDS011;717;51.522;7.266;2023-10-31T01:16:29;1.67;;;1.40;;
1446;SDS011;717;51.522;7.266;2023-10-31T01:18:59;1.63;;;1.52;;
1446;SDS011;717;51.522;7.266;2023-10-31T01:21:30;1.95;;;1.55;;
1446;SDS011;717;51.522;7.266;2023-10-31T01:24:03;1.52;;;1.40;;
1446;SDS011;717;51.522;7.266;2023-10-31T01:26:33;1.58;;;1.35;;
1446;SDS011;717;51.522;7.266;2023-10-31T01:29:03;1.50;;;1.30;;
1446;SDS011;717;51.522;7.266;2023-10-31T01:31:33;1.40;;;1.30;;
1446;SDS011;717;51.522;7.266;2023-10-31T01:34:21;1.60;;;1.30;;
1446;SDS011;717;51.522;7.266;2023-10-31T01:36:51;1.58;;;1.30;;
1446;SDS011;717;51.522;7.266;2023-10-31T01:39:24;1.33;;;1.23;;
1446;SDS011;717;51.522;7.266;2023-10-31T01:41:54;1.08;;;1.00;;
1446;SDS011;717;51.522;7.266;2023-10-31T01:44:24;1.85;;;1.08;;
1446;SDS011;717;51.522;7.266;2023-10-31T01:46:54;1.33;;;1.10;;
1446;SDS011;717;51.522;7.266;2023-10-31T01:49:24;1.15;;;0.90;;
1446;SDS011;717;51.522;7.266;2023-10-31T01:51:54;1.67;;;1.10;;
1446;SDS011;717;51.522;7.266;2023-10-31T01:54:27;2.03;;;0.90;;
1446;SDS011;717;51.522;7.266;2023-10-31T01:56:57;2.30;;;0.90;;
1446;SDS011;717;51.522;7.266;2023-10-31T01:59:28;0.90;;;0.90;;
1446;SDS011;717;51.522;7.266;2023-10-31T02:01:58;1.38;;;1.05;;
1446;SDS011;717;51.522;7.266;2023-10-31T02:04:30;1.92;;;1.23;;
1446;SDS011;717;51.522;7.266;2023-10-31T02:07:00;2.25;;;1.10;;
1446;SDS011;717;51.522;7.266;2023-10-31T02:09:32;1.38;;;1.27;;
1446;SDS011;717;51.522;7.266;2023-10-31T02:12:03;1.95;;;1.85;;
1446;SDS011;717;51.522;7.266;2023-10-31T02:14:33;2.10;;;1.67;;
1446;SDS011;717;51.522;7.266;2023-10-31T02:17:03;1.85;;;1.65;;
1446;SDS011;717;51.522;7.266;2023-10-31T02:19:33;1.98;;;1.83;;
1446;SDS011;717;51.522;7.266;2023-10-31T02:22:06;2.17;;;2.00;;
1446;SDS011;717;51.522;7.266;2023-10-31T02:24:35;2.83;;;2.28;;
1446;SDS011;717;51.522;7.266;2023-10-31T02:27:05;2.97;;;2.50;;
1446;SDS011;717;51.522;7.266;2023-10-31T02:29:35;3.28;;;2.97;;
1446;SDS011;717;51.522;7.266;2023-10-31T02:32:06;3.28;;;2.90;;
1446;SDS011;717;51.522;7.266;2023-10-31T02:34:36;3.35;;;3.05;;
1446;SDS011;717;51.522;7.266;2023-10-31T02:37:08;3.70;;;3.30;;
1446;SDS011;717;51.522;7.266;2023-10-31T02:39:39;4.05;;;3.70;;
1446;SDS011;717;51.522;7.266;2023-10-31T02:42:09;4.43;;;3.60;;
1446;SDS011;717;51.522;7.266;2023-10-31T02:44:39;4.05;;;3.70;;
1446;SDS011;717;51.522;7.266;2023-10-31T02:47:09;4.80;;;4.03;;
1446;SDS011;717;51.522;7.266;2023-10-31T02:49:39;4.50;;;4.07;;
1446;SDS011;717;51.522;7.266;2023-10-31T02:52:11;4.65;;;4.25;;
1446;SDS011;717;51.522;7.266;2023-10-31T02:54:41;5.38;;;4.13;;
1446;SDS011;717;51.522;7.266;2023-10-31T02:57:11;5.38;;;3.92;;
1446;SDS011;717;51.522;7.266;2023-10-31T02:59:41;4.00;;;3.55;;
1446;SDS011;717;51.522;7.266;2023-10-31T03:02:12;3.97;;;3.47;;
1446;SDS011;717;51.522;7.266;2023-10-31T03:04:43;4.30;;;3.85;;
1446;SDS011;717;51.522;7.266;2023-10-31T03:07:15;4.20;;;3.80;;
1446;SDS011;717;51.522;7.266;2023-10-31T03:09:47;4.63;;;4.18;;
1446;SDS011;717;51.522;7.266;2023-10-31T03:12:18;3.75;;;3.45;;
1446;SDS011;717;51.522;7.266;2023-10-31T03:14:48;4.25;;;3.70;;
1446;SDS011;717;51.522;7.266;2023-10-31T03:17:18;3.70;;;3.40;;
1446;SDS011;717;51.522;7.266;2023-10-31T03:19:49;4.07;;;3.78;;
1446;SDS011;717;51.522;7.266;2023-10-31T03:22:21;4.60;;;4.30;;
1446;SDS011;717;51.522;7.266;2023-10-31T03:24:51;3.92;;;3.63;;
1446;SDS011;717;51.522;7.266;2023-10-31T03:27:21;4.78;;;4.38;;
1446;SDS011;717;51.522;7.266;2023-10-31T03:29:51;5.68;;;5.18;;
1446;SDS011;717;51.522;7.266;2023-10-31T03:32:21;4.88;;;4.47;;
1446;SDS011;717;51.522;7.266;2023-10-31T03:34:51;4.55;;;4.15;;
1446;SDS011;717;51.522;7.266;2023-10-31T03:37:24;5.43;;;5.03;;
1446;SDS011;717;51.522;7.266;2023-10-31T03:39:54;5.90;;;5.30;;
1446;SDS011;717;51.522;7.266;2023-10-31T03:42:24;5.97;;;5.45;;
1446;SDS011;717;51.522;7.266;2023-10-31T03:44:55;5.93;;;5.35;;
1446;SDS011;717;51.522;7.266;2023-10-31T03:47:25;6.65;;;6.03;;
1446;SDS011;717;51.522;7.266;2023-10-31T03:49:55;6.78;;;6.18;;
1446;SDS011;717;51.522;7.266;2023-10-31T03:52:28;7.13;;;6.43;;
1446;SDS011;717;51.522;7.266;2023-10-31T03:54:58;8.07;;;7.38;;
1446;SDS011;717;51.522;7.266;2023-10-31T03:57:28;7.65;;;6.95;;
1446;SDS011;717;51.522;7.266;2023-10-31T03:59:57;7.95;;;7.25;;
1446;SDS011;717;51.522;7.266;2023-10-31T04:02:39;8.02;;;7.15;;
1446;SDS011;717;51.522;7.266;2023-10-31T04:05:09;8.98;;;7.68;;
1446;SDS011;717;51.522;7.266;2023-10-31T04:07:42;6.90;;;6.20;;
1446;SDS011;717;51.522;7.266;2023-10-31T04:10:12;5.25;;;4.78;;
1446;SDS011;717;51.522;7.266;2023-10-31T04:12:42;5.72;;;4.70;;
1446;SDS011;717;51.522;7.266;2023-10-31T04:15:12;5.80;;;4.72;;
1446;SDS011;717;51.522;7.266;2023-10-31T04:17:42;5.22;;;4.50;;
1446;SDS011;717;51.522;7.266;2023-10-31T04:20:12;4.40;;;4.00;;
1446;SDS011;717;51.522;7.266;2023-10-31T04:22:45;4.53;;;4.13;;
1446;SDS011;717;51.522;7.266;2023-10-31T04:25:15;6.40;;;4.88;;
1446;SDS011;717;51.522;7.266;2023-10-31T04:27:45;5.50;;;5.00;;
1446;SDS011;717;51.522;7.266;2023-10-31T04:30:15;6.70;;;5.00;;
1446;SDS011;717;51.522;7.266;2023-10-31T04:32:45;5.38;;;4.85;;
1446;SDS011;717;51.522;7.266;2023-10-31T04:35:15;5.57;;;4.70;;
1446;SDS011;717;51.522;7.266;2023-10-31T04:37:48;5.25;;;4.75;;
1446;SDS011;717;51.522;7.266;2023-10-31T04:40:18;6.65;;;5.20;;
1446;SDS011;717;51.522;7.266;2023-10-31T04:42:51;5.20;;;4.70;;
1446;SDS011;717;51.522;7.266;2023-10-31T04:45:21;5.40;;;4.90;;
1446;SDS011;717;51.522;7.266;2023-10-31T04:47:50;5.90;;;4.57;;
1446;SDS011;717;51.522;7.266;2023-10-31T04:50:21;6.53;;;4.32;;
1446;SDS011;717;51.522;7.266;2023-10-31T04:52:53;7.00;;;4.82;;
1446;SDS011;717;51.522;7.266;2023-10-31T04:55:23;5.80;;;5.15;;
1446;SDS011;717;51.522;7.266;2023-10-31T04:57:54;4.78;;;4.28;;
1446;SDS011;717;51.522;7.266;2023-10-31T05:00:24;4.80;;;4.20;;
1446;SDS011;717;51.522;7.266;2023-10-31T05:02:54;6.03;;;4.55;;
1446;SDS011;717;51.522;7.266;2023-10-31T05:05:24;7.20;;;4.95;;
1446;SDS011;717;51.522;7.266;2023-10-31T05:07:57;6.05;;;4.88;;
1446;SDS011;717;51.522;7.266;2023-10-31T05:10:27;5.78;;;4.72;;
1446;SDS011;717;51.522;7.266;2023-10-31T05:12:57;5.30;;;4.80;;
1446;SDS011;717;51.522;7.266;2023-10-31T05:15:27;5.63;;;5.13;;
1446;SDS011;717;51.522;7.266;2023-10-31T05:17:57;5.32;;;4.82;;
1446;SDS011;717;51.522;7.266;2023-10-31T05:20:27;4.38;;;3.97;;
1446;SDS011;717;51.522;7.266;2023-10-31T05:23:03;5.00;;;4.50;;
1446;SDS011;717;51.522;7.266;2023-10-31T05:25:33;5.43;;;4.65;;
1446;SDS011;717;51.522;7.266;2023-10-31T05:28:04;5.38;;;4.82;;
1446;SDS011;717;51.522;7.266;2023-10-31T05:30:34;4.93;;;4.05;;
1446;SDS011;717;51.522;7.266;2023-10-31T05:33:04;5.30;;;4.80;;
1446;SDS011;717;51.522;7.266;2023-10-31T05:35:34;6.05;;;4.78;;
1446;SDS011;717;51.522;7.266;2023-10-31T05:38:06;5.25;;;4.75;;
1446;SDS011;717;51.522;7.266;2023-10-31T05:40:36;6.40;;;4.90;;
1446;SDS011;717;51.522;7.266;2023-10-31T05:43:06;5.50;;;5.00;;
1446;SDS011;717;51.522;7.266;2023-10-31T05:45:36;6.78;;;6.18;;
1446;SDS011;717;51.522;7.266;2023-10-31T05:48:09;6.25;;;5.47;;
1446;SDS011;717;51.522;7.266;2023-10-31T05:50:41;5.63;;;5.07;;
1446;SDS011;717;51.522;7.266;2023-10-31T05:53:14;5.30;;;4.78;;
1446;SDS011;717;51.522;7.266;2023-10-31T05:55:44;5.75;;;4.93;;
1446;SDS011;717;51.522;7.266;2023-10-31T05:58:14;5.65;;;5.15;;
1446;SDS011;717;51.522;7.266;2023-10-31T06:00:46;5.68;;;4.80;;
1446;SDS011;717;51.522;7.266;2023-10-31T06:03:16;5.40;;;4.38;;
1446;SDS011;717;51.522;7.266;2023-10-31T06:05:46;5.85;;;5.25;;
1446;SDS011;717;51.522;7.266;2023-10-31T06:08:18;5.55;;;5.05;;
1446;SDS011;717;51.522;7.266;2023-10-31T06:10:50;6.78;;;6.07;;
1446;SDS011;717;51.522;7.266;2023-10-31T06:13:20;7.45;;;6.43;;
1446;SDS011;717;51.522;7.266;2023-10-31T06:15:52;8.18;;;7.30;;
1446;SDS011;717;51.522;7.266;2023-10-31T06:18:27;7.85;;;7.15;;
1446;SDS011;717;51.522;7.266;2023-10-31T06:20:57;8.90;;;7.65;;
1446;SDS011;717;51.522;7.266;2023-10-31T06:23:29;8.93;;;7.72;;
1446;SDS011;717;51.522;7.266;2023-10-31T06:25:59;10.20;;;8.82;;
1446;SDS011;717;51.522;7.266;2023-10-31T06:28:29;10.07;;;9.00;;
1446;SDS011;717;51.522;7.266;2023-10-31T06:31:07;10.18;;;9.18;;
1446;SDS011;717;51.522;7.266;2023-10-31T06:33:36;11.25;;;9.25;;
1446;SDS011;717;51.522;7.266;2023-10-31T06:36:07;10.90;;;9.80;;
1446;SDS011;717;51.522;7.266;2023-10-31T06:38:40;10.82;;;9.35;;
1446;SDS011;717;51.522;7.266;2023-10-31T06:41:10;10.60;;;9.60;;
1446;SDS011;717;51.522;7.266;2023-10-31T06:43:40;10.63;;;9.43;;
1446;SDS011;717;51.522;7.266;2023-10-31T06:46:10;11.18;;;10.07;;
1446;SDS011;717;51.522;7.266;2023-10-31T06:48:41;10.93;;;9.82;;
1446;SDS011;717;51.522;7.266;2023-10-31T06:51:11;12.27;;;11.02;;
1446;SDS011;717;51.522;7.266;2023-10-31T06:53:44;12.27;;;11.07;;
1446;SDS011;717;51.522;7.266;2023-10-31T06:56:14;11.38;;;10.20;;
1446;SDS011;717;51.522;7.266;2023-10-31T06:58:44;11.55;;;10.43;;
1446;SDS011;717;51.522;7.266;2023-10-31T07:01:14;12.43;;;11.18;;
1446;SDS011;717;51.522;7.266;2023-10-31T07:03:47;11.75;;;10.65;;
1446;SDS011;717;51.522;7.266;2023-10-31T07:06:17;11.93;;;10.20;;
1446;SDS011;717;51.522;7.266;2023-10-31T07:08:50;12.40;;;11.10;;
1446;SDS011;717;51.522;7.266;2023-10-31T07:11:20;11.85;;;10.65;;
1446;SDS011;717;51.522;7.266;2023-10-31T07:13:50;11.85;;;10.65;;
1446;SDS011;717;51.522;7.266;2023-10-31T07:16:20;10.65;;;9.65;;
1446;SDS011;717;51.522;7.266;2023-10-31T07:18:50;11.18;;;9.80;;
1446;SDS011;717;51.522;7.266;2023-10-31T07:21:20;12.32;;;9.90;;
1446;SDS011;717;51.522;7.266;2023-10-31T07:23:52;9.63;;;8.73;;
1446;SDS011;717;51.522;7.266;2023-10-31T07:26:23;8.52;;;7.72;;
1446;SDS011;717;51.522;7.266;2023-10-31T07:28:53;8.82;;;7.93;;
1446;SDS011;717;51.522;7.266;2023-10-31T07:31:24;9.25;;;7.82;;
1446;SDS011;717;51.522;7.266;2023-10-31T07:33:54;9.30;;;7.40;;
1446;SDS011;717;51.522;7.266;2023-10-31T07:36:24;9.02;;;8.15;;
1446;SDS011;717;51.522;7.266;2023-10-31T07:38:56;7.95;;;7.32;;
1446;SDS011;717;51.522;7.266;2023-10-31T07:41:26;8.05;;;7.35;;
1446;SDS011;717;51.522;7.266;2023-10-31T07:43:56;7.88;;;7.10;;
1446;SDS011;717;51.522;7.266;2023-10-31T07:46:26;7.93;;;7.13;;
1446;SDS011;717;51.522;7.266;2023-10-31T07:48:56;7.55;;;6.65;;
1446;SDS011;717;51.522;7.266;2023-10-31T07:51:26;8.07;;;7.38;;
1446;SDS011;717;51.522;7.266;2023-10-31T07:53:59;6.95;;;6.25;;
1446;SDS011;717;51.522;7.266;2023-10-31T07:56:30;8.13;;;7.35;;
1446;SDS011;717;51.522;7.266;2023-10-31T07:59:01;7.22;;;6.53;;
1446;SDS011;717;51.522;7.266;2023-10-31T08:01:31;7.68;;;7.07;;
1446;SDS011;717;51.522;7.266;2023-10-31T08:04:01;8.10;;;7.15;;
1446;SDS011;717;51.522;7.266;2023-10-31T08:06:31;7.65;;;6.80;;
1446;SDS011;717;51.522;7.266;2023-10-31T08:09:04;7.25;;;6.55;;
1446;SDS011;717;51.522;7.266;2023-10-31T08:11:34;7.10;;;6.50;;
1446;SDS011;717;51.522;7.266;2023-10-31T08:14:04;7.30;;;6.60;;
1446;SDS011;717;51.522;7.266;2023-10-31T08:16:34;6.95;;;6.35;;
1446;SDS011;717;51.522;7.266;2023-10-31T08:19:04;7.45;;;6.75;;
1446;SDS011;717;51.522;7.266;2023-10-31T08:21:34;7.32;;;6.70;;
1446;SDS011;717;51.522;7.266;2023-10-31T08:24:07;8.20;;;7.35;;
1446;SDS011;717;51.522;7.266;2023-10-31T08:26:40;9.20;;;8.38;;
1446;SDS011;717;51.522;7.266;2023-10-31T08:29:09;9.23;;;8.27;;
1446;SDS011;717;51.522;7.266;2023-10-31T08:31:40;8.55;;;7.85;;
1446;SDS011;717;51.522;7.266;2023-10-31T08:34:10;9.00;;;8.20;;
1446;SDS011;717;51.522;7.266;2023-10-31T08:36:40;9.55;;;8.68;;
1446;SDS011;717;51.522;7.266;2023-10-31T08:39:12;8.77;;;7.97;;
1446;SDS011;717;51.522;7.266;2023-10-31T08:41:49;8.35;;;7.45;;
1446;SDS011;717;51.522;7.266;2023-10-31T08:44:20;8.23;;;7.53;;
1446;SDS011;717;51.522;7.266;2023-10-31T08:46:50;7.80;;;7.10;;
1446;SDS011;717;51.522;7.266;2023-10-31T08:49:20;7.38;;;6.60;;
1446;SDS011;717;51.522;7.266;2023-10-31T08:51:50;6.43;;;5.85;;
1446;SDS011;717;51.522;7.266;2023-10-31T08:54:22;7.40;;;6.70;;
1446;SDS011;717;51.522;7.266;2023-10-31T08:56:52;7.03;;;6.43;;
1446;SDS011;717;51.522;7.266;2023-10-31T08:59:22;7.82;;;6.47;;
1446;SDS011;717;51.522;7.266;2023-10-31T09:01:52;6.93;;;6.28;;
1446;SDS011;717;51.522;7.266;2023-10-31T09:04:22;7.43;;;6.82;;
1446;SDS011;717;51.522;7.266;2023-10-31T09:06:52;6.70;;;6.18;;
1446;SDS011;717;51.522;7.266;2023-10-31T09:09:25;6.65;;;6.00;;
1446;SDS011;717;51.522;7.266;2023-10-31T09:11:55;7.30;;;6.70;;
1446;SDS011;717;51.522;7.266;2023-10-31T09:14:25;7.35;;;6.63;;
1446;SDS011;717;51.522;7.266;2023-10-31T09:16:55;7.07;;;6.43;;
1446;SDS011;717;51.522;7.266;2023-10-31T09:19:25;7.43;;;6.82;;
1446;SDS011;717;51.522;7.266;2023-10-31T09:21:55;7.38;;;6.78;;
1446;SDS011;717;51.522;7.266;2023-10-31T09:24:28;6.95;;;6.35;;
1446;SDS011;717;51.522;7.266;2023-10-31T09:26:58;6.75;;;6.15;;
1446;SDS011;717;51.522;7.266;2023-10-31T09:29:28;6.72;;;6.22;;
1446;SDS011;717;51.522;7.266;2023-10-31T09:31:58;6.78;;;6.28;;
1446;SDS011;717;51.522;7.266;2023-10-31T09:34:28;6.90;;;6.30;;
1446;SDS011;717;51.522;7.266;2023-10-31T09:36:58;7.32;;;6.72;;
1446;SDS011;717;51.522;7.266;2023-10-31T09:39:30;6.82;;;6.22;;
1446;SDS011;717;51.522;7.266;2023-10-31T09:42:00;6.80;;;6.20;;
1446;SDS011;717;51.522;7.266;2023-10-31T09:44:30;6.63;;;6.13;;
1446;SDS011;717;51.522;7.266;2023-10-31T09:47:01;7.03;;;6.43;;
1446;SDS011;717;51.522;7.266;2023-10-31T09:49:31;6.63;;;6.03;;
1446;SDS011;717;51.522;7.266;2023-10-31T09:52:01;6.30;;;5.63;;
1446;SDS011;717;51.522;7.266;2023-10-31T09:54:36;7.10;;;5.88;;
1446;SDS011;717;51.522;7.266;2023-10-31T09:57:10;6.00;;;5.50;;
1446;SDS011;717;51.522;7.266;2023-10-31T09:59:40;6.43;;;5.82;;
1446;SDS011;717;51.522;7.266;2023-10-31T10:02:10;6.47;;;5.82;;
1446;SDS011;717;51.522;7.266;2023-10-31T10:04:40;6.05;;;5.55;;
1446;SDS011;717;51.522;7.266;2023-10-31T10:07:13;6.10;;;5.60;;
1446;SDS011;717;51.522;7.266;2023-10-31T10:09:47;6.00;;;5.18;;
1446;SDS011;717;51.522;7.266;2023-10-31T10:12:17;5.70;;;5.20;;
1446;SDS011;717;51.522;7.266;2023-10-31T10:14:47;6.18;;;4.75;;
1446;SDS011;717;51.522;7.266;2023-10-31T10:17:19;4.97;;;4.57;;
1446;SDS011;717;51.522;7.266;2023-10-31T10:19:56;5.15;;;4.75;;
1446;SDS011;717;51.522;7.266;2023-10-31T10:22:39;5.15;;;4.65;;
1446;SDS011;717;51.522;7.266;2023-10-31T10:25:13;4.80;;;4.35;;
1446;SDS011;717;51.522;7.266;2023-10-31T10:27:45;5.72;;;4.95;;
1446;SDS011;717;51.522;7.266;2023-10-31T10:30:16;6.97;;;4.75;;
1446;SDS011;717;51.522;7.266;2023-10-31T10:32:46;5.78;;;5.18;;
1446;SDS011;717;51.522;7.266;2023-10-31T10:35:18;5.30;;;4.80;;
1446;SDS011;717;51.522;7.266;2023-10-31T10:37:48;5.43;;;4.95;;
1446;SDS011;717;51.522;7.266;2023-10-31T10:40:23;5.57;;;4.65;;
1446;SDS011;717;51.522;7.266;2023-10-31T10:42:56;6.10;;;5.50;;
1446;SDS011;717;51.522;7.266;2023-10-31T10:45:29;7.57;;;5.70;;
1446;SDS011;717;51.522;7.266;2023-10-31T10:48:00;6.95;;;6.00;;
1446;SDS011;717;51.522;7.266;2023-10-31T10:50:34;6.70;;;5.97;;
1446;SDS011;717;51.522;7.266;2023-10-31T10:53:09;7.00;;;6.30;;
1446;SDS011;717;51.522;7.266;2023-10-31T10:55:50;6.25;;;5.70;;
1446;SDS011;717;51.522;7.266;2023-10-31T10:58:22;8.32;;;5.78;;
1446;SDS011;717;51.522;7.266;2023-10-31T11:01:00;6.47;;;5.65;;
1446;SDS011;717;51.522;7.266;2023-10-31T11:03:30;6.65;;;5.82;;
1446;SDS011;717;51.522;7.266;2023-10-31T11:06:02;7.57;;;5.88;;
1446;SDS011;717;51.522;7.266;2023-10-31T11:08:33;5.85;;;5.25;;
1446;SDS011;717;51.522;7.266;2023-10-31T11:11:07;6.20;;;5.60;;
1446;SDS011;717;51.522;7.266;2023-10-31T11:13:38;5.63;;;5.13;;
1446;SDS011;717;51.522;7.266;2023-10-31T11:16:09;6.55;;;5.93;;
1446;SDS011;717;51.522;7.266;2023-10-31T11:18:43;6.63;;;6.03;;
1446;SDS011;717;51.522;7.266;2023-10-31T11:21:14;6.68;;;5.68;;
1446;SDS011;717;51.522;7.266;2023-10-31T11:23:44;5.90;;;5.40;;
1446;SDS011;717;51.522;7.266;2023-10-31T11:26:17;6.18;;;5.57;;
1446;SDS011;717;51.522;7.266;2023-10-31T11:28:47;6.10;;;5.50;;
1446;SDS011;717;51.522;7.266;2023-10-31T11:31:20;5.82;;;5.22;;
1446;SDS011;717;51.522;7.266;2023-10-31T11:33:50;6.15;;;4.95;;
1446;SDS011;717;51.522;7.266;2023-10-31T11:36:21;5.90;;;4.97;;
1446;SDS011;717;51.522;7.266;2023-10-31T11:38:52;5.50;;;4.70;;
1446;SDS011;717;51.522;7.266;2023-10-31T11:41:47;7.53;;;4.65;;
1446;SDS011;717;51.522;7.266;2023-10-31T11:44:18;4.55;;;4.10;;
1446;SDS011;717;51.522;7.266;2023-10-31T11:46:52;5.57;;;4.35;;
1446;SDS011;717;51.522;7.266;2023-10-31T11:52:16;10.30;;;4.20;;
1446;SDS011;717;51.522;7.266;2023-10-31T11:54:46;4.47;;;3.90;;
1446;SDS011;717;51.522;7.266;2023-10-31T11:57:28;6.25;;;3.70;;
1446;SDS011;717;51.522;7.266;2023-10-31T11:59:59;5.65;;;3.90;;
1446;SDS011;717;51.522;7.266;2023-10-31T12:02:38;4.75;;;3.40;;
1446;SDS011;717;51.522;7.266;2023-10-31T12:05:08;6.25;;;3.78;;
1446;SDS011;717;51.522;7.266;2023-10-31T12:07:42;4.57;;;3.03;;
1446;SDS011;717;51.522;7.266;2023-10-31T12:10:12;4.35;;;2.80;;
1446;SDS011;717;51.522;7.266;2023-10-31T12:12:53;5.50;;;2.88;;
1446;SDS011;717;51.522;7.266;2023-10-31T12:15:23;3.70;;;2.90;;
1446;SDS011;717;51.522;7.266;2023-10-31T12:17:57;3.45;;;2.70;;
1446;SDS011;717;51.522;7.266;2023-10-31T12:20:28;4.07;;;2.88;;
1446;SDS011;717;51.522;7.266;2023-10-31T12:23:02;4.63;;;2.95;;
1446;SDS011;717;51.522;7.266;2023-10-31T12:25:32;4.20;;;2.72;;
1446;SDS011;717;51.522;7.266;2023-10-31T12:28:05;5.45;;;2.67;;
1446;SDS011;717;51.522;7.266;2023-10-31T12:30:36;5.05;;;2.65;;
1446;SDS011;717;51.522;7.266;2023-10-31T12:33:15;3.53;;;2.47;;
1446;SDS011;717;51.522;7.266;2023-10-31T12:35:45;4.43;;;2.47;;
1446;SDS011;717;51.522;7.266;2023-10-31T12:38:15;5.60;;;2.47;;
1446;SDS011;717;51.522;7.266;2023-10-31T12:40:46;4.45;;;2.05;;
1446;SDS011;717;51.522;7.266;2023-10-31T12:43:19;4.60;;;2.08;;
1446;SDS011;717;51.522;7.266;2023-10-31T12:45:49;3.63;;;1.85;;
1446;SDS011;717;51.522;7.266;2023-10-31T12:48:23;4.93;;;2.08;;
1446;SDS011;717;51.522;7.266;2023-10-31T12:51:05;3.60;;;1.70;;
1446;SDS011;717;51.522;7.266;2023-10-31T12:53:36;3.53;;;1.73;;
1446;SDS011;717;51.522;7.266;2023-10-31T12:56:06;4.80;;;1.88;;
1446;SDS011;717;51.522;7.266;2023-10-31T12:58:40;4.13;;;2.08;;
1446;SDS011;717;51.522;7.266;2023-10-31T13:01:10;3.47;;;1.90;;
1446;SDS011;717;51.522;7.266;2023-10-31T13:03:49;3.67;;;1.60;;
1446;SDS011;717;51.522;7.266;2023-10-31T13:06:20;3.30;;;1.20;;
1446;SDS011;717;51.522;7.266;2023-10-31T13:08:50;3.80;;;1.20;;
1446;SDS011;717;51.522;7.266;2023-10-31T13:11:20;2.35;;;1.60;;
1446;SDS011;717;51.522;7.266;2023-10-31T13:13:55;2.65;;;1.10;;
1446;SDS011;717;51.522;7.266;2023-10-31T13:16:25;3.15;;;1.30;;
1446;SDS011;717;51.522;7.266;2023-10-31T13:18:55;4.22;;;1.30;;
1446;SDS011;717;51.522;7.266;2023-10-31T13:21:25;2.47;;;1.20;;
1446;SDS011;717;51.522;7.266;2023-10-31T13:23:55;3.60;;;1.65;;
1446;SDS011;717;51.522;7.266;2023-10-31T13:26:25;3.45;;;1.50;;
1446;SDS011;717;51.522;7.266;2023-10-31T13:28:58;3.42;;;1.30;;
1446;SDS011;717;51.522;7.266;2023-10-31T13:31:28;1.85;;;1.10;;
1446;SDS011;717;51.522;7.266;2023-10-31T13:33:58;2.97;;;1.50;;
1446;SDS011;717;51.522;7.266;2023-10-31T13:36:28;2.25;;;1.00;;
1446;SDS011;717;51.522;7.266;2023-10-31T13:38:58;2.53;;;1.45;;
1446;SDS011;717;51.522;7.266;2023-10-31T13:41:28;1.08;;;0.90;;
1446;SDS011;717;51.522;7.266;2023-10-31T13:44:01;1.50;;;0.82;;
1446;SDS011;717;51.522;7.266;2023-10-31T13:46:32;3.28;;;0.80;;
1446;SDS011;717;51.522;7.266;2023-10-31T13:49:02;3.45;;;1.25;;
1446;SDS011;717;51.522;7.266;2023-10-31T13:51:33;3.50;;;1.08;;
1446;SDS011;717;51.522;7.266;2023-10-31T13:54:03;2.13;;;1.08;;
1446;SDS011;717;51.522;7.266;2023-10-31T13:56:34;1.25;;;0.80;;
1446;SDS011;717;51.522;7.266;2023-10-31T13:59:07;1.30;;;0.80;;
1446;SDS011;717;51.522;7.266;2023-10-31T14:01:37;1.55;;;1.02;;
1446;SDS011;717;51.522;7.266;2023-10-31T14:04:07;1.15;;;0.70;;
1446;SDS011;717;51.522;7.266;2023-10-31T14:06:37;1.88;;;0.65;;
1446;SDS011;717;51.522;7.266;2023-10-31T14:09:08;1.23;;;1.00;;
1446;SDS011;717;51.522;7.266;2023-10-31T14:11:39;2.55;;;0.93;;
1446;SDS011;717;51.522;7.266;2023-10-31T14:14:12;1.63;;;0.85;;
1446;SDS011;717;51.522;7.266;2023-10-31T14:16:42;1.67;;;0.90;;
1446;SDS011;717;51.522;7.266;2023-10-31T14:19:13;0.88;;;0.70;;
1446;SDS011;717;51.522;7.266;2023-10-31T14:21:44;1.55;;;1.00;;
1446;SDS011;717;51.522;7.266;2023-10-31T14:24:14;2.03;;;1.00;;
1446;SDS011;717;51.522;7.266;2023-10-31T14:26:44;1.25;;;0.82;;
1446;SDS011;717;51.522;7.266;2023-10-31T14:29:17;2.13;;;0.90;;
1446;SDS011;717;51.522;7.266;2023-10-31T14:31:47;2.35;;;0.85;;
1446;SDS011;717;51.522;7.266;2023-10-31T14:34:18;3.38;;;0.90;;
1446;SDS011;717;51.522;7.266;2023-10-31T14:36:48;2.80;;;0.82;;
1446;SDS011;717;51.522;7.266;2023-10-31T14:39:19;3.88;;;1.27;;
1446;SDS011;717;51.522;7.266;2023-10-31T14:41:49;2.90;;;0.90;;
1446;SDS011;717;51.522;7.266;2023-10-31T14:44:21;2.03;;;1.13;;
1446;SDS011;717;51.522;7.266;2023-10-31T14:46:51;1.48;;;1.10;;
1446;SDS011;717;51.522;7.266;2023-10-31T14:49:22;2.28;;;1.20;;
1446;SDS011;717;51.522;7.266;2023-10-31T14:51:52;1.05;;;0.90;;
1446;SDS011;717;51.522;7.266;2023-10-31T14:54:22;1.50;;;1.30;;
1446;SDS011;717;51.522;7.266;2023-10-31T14:56:52;1.17;;;1.08;;
1446;SDS011;717;51.522;7.266;2023-10-31T14:59:25;2.17;;;1.20;;
1446;SDS011;717;51.522;7.266;2023-10-31T15:01:55;1.83;;;0.90;;
1446;SDS011;717;51.522;7.266;2023-10-31T15:04:25;3.13;;;1.23;;
1446;SDS011;717;51.522;7.266;2023-10-31T15:06:55;1.67;;;1.00;;
1446;SDS011;717;51.522;7.266;2023-10-31T15:09:25;2.22;;;1.10;;
1446;SDS011;717;51.522;7.266;2023-10-31T15:11:55;3.00;;;1.33;;
1446;SDS011;717;51.522;7.266;2023-10-31T15:14:28;1.92;;;1.20;;
1446;SDS011;717;51.522;7.266;2023-10-31T15:16:58;1.90;;;0.98;;
1446;SDS011;717;51.522;7.266;2023-10-31T15:19:28;1.75;;;1.15;;
1446;SDS011;717;51.522;7.266;2023-10-31T15:21:58;2.42;;;1.20;;
1446;SDS011;717;51.522;7.266;2023-10-31T15:24:28;2.45;;;1.08;;
1446;SDS011;717;51.522;7.266;2023-10-31T15:26:59;1.08;;;0.80;;
1446;SDS011;717;51.522;7.266;2023-10-31T15:29:32;1.65;;;1.23;;
1446;SDS011;717;51.522;7.266;2023-10-31T15:32:05;1.10;;;0.93;;
1446;SDS011;717;51.522;7.266;2023-10-31T15:34:35;1.58;;;1.20;;
1446;SDS011;717;51.522;7.266;2023-10-31T15:37:09;2.08;;;1.02;;
1446;SDS011;717;51.522;7.266;2023-10-31T15:39:39;3.08;;;1.25;;
1446;SDS011;717;51.522;7.266;2023-10-31T15:42:15;1.98;;;0.98;;
1446;SDS011;717;51.522;7.266;2023-10-31T15:44:47;1.20;;;0.98;;
1446;SDS011;717;51.522;7.266;2023-10-31T15:47:17;1.42;;;1.10;;
1446;SDS011;717;51.522;7.266;2023-10-31T15:49:48;1.80;;;1.30;;
1446;SDS011;717;51.522;7.266;2023-10-31T15:52:18;1.02;;;0.90;;
1446;SDS011;717;51.522;7.266;2023-10-31T15:54:48;2.03;;;1.20;;
1446;SDS011;717;51.522;7.266;2023-10-31T15:57:18;2.60;;;1.02;;